M I D A S
Marine Information and Data Acquisition System
Tripno 1074 of the Zeeleeuw from 2006-04-21 07:07:59 to 2006-04-21 08:28:20
Back to CruiseResearch ActivitiesStationsMapUnderway DataData graphs

EquipmentUnitsComments
TimeDGPSUTC
LatitudeDGPSDM.mWGS84
LongitudeDGPSDM.mWGS84
SpeedMeteo Stationm/sRelative wind speed
DirectionMeteo StationdegRelative wind direction
TemperatureMeteo Stationdeg CelciusAir temperature
PressureMeteo StationPaAtmospheric pressure
HumidityMeteo Station%Relative humidity
Missing or incorrect values are displayed as -999
Metereological data collected by the RV Zeeleeuw from 2006-04-21 07:01:57 to 2006-04-21 10:24:19
                                                                                    Next 1000 lines
Time Latitude Longitude Speed Direction Temperature Pressure Humidity
2006-04-21 07:02:07 51°13.601 2°56.097 -999 113 12.2 101480 62
2006-04-21 07:02:12 51°13.601 2°56.094 -999 90 12.2 101480 62
2006-04-21 07:02:17 51°13.6 2°56.092 -999 89 12.2 101480 62
2006-04-21 07:02:21 51°13.601 2°56.09 -999 89 12.2 101480 62
2006-04-21 07:02:27 51°13.602 2°56.087 -999 96 12.2 101480 62
2006-04-21 07:02:32 51°13.603 2°56.084 -999 91 12.2 101480 62
2006-04-21 07:02:38 51°13.604 2°56.08 -999 92 12.2 101480 62
2006-04-21 07:02:43 51°13.605 2°56.076 -999 104 12.3 101480 62
2006-04-21 07:02:48 51°13.606 2°56.072 -999 110 12.3 101480 62
2006-04-21 07:02:53 51°13.607 2°56.068 -999 101 12.2 101480 62
2006-04-21 07:02:58 51°13.608 2°56.063 -999 106 12.2 101480 62
2006-04-21 07:03:03 51°13.608 2°56.058 -999 105 12.3 101480 62
2006-04-21 07:03:08 51°13.608 2°56.053 -999 106 12.3 101480 62
2006-04-21 07:03:13 51°13.61 2°56.048 -999 106 12.3 101480 62
2006-04-21 07:03:18 51°13.611 2°56.043 -999 106 12.3 101480 62
2006-04-21 07:03:23 51°13.612 2°56.038 -999 108 12.3 101480 62
2006-04-21 07:03:28 51°13.614 2°56.033 -999 108 12.3 101480 62
2006-04-21 07:03:33 51°13.615 2°56.028 -999 108 12.3 101480 62
2006-04-21 07:03:38 51°13.617 2°56.022 -999 108 12.3 101480 62
2006-04-21 07:03:43 51°13.619 2°56.017 -999 108 12.3 101480 62
2006-04-21 07:03:49 51°13.62 2°56.011 -999 108 12.3 101480 62
2006-04-21 07:03:53 51°13.622 2°56.007 -999 108 12.3 101480 62
2006-04-21 07:03:58 51°13.622 2°56.001 -999 108 12.3 101480 62
2006-04-21 07:04:03 51°13.623 2°55.995 -999 108 12.3 101480 62
2006-04-21 07:04:08 51°13.624 2°55.989 -999 108 12.3 101480 62
2006-04-21 07:04:13 51°13.625 2°55.984 -999 108 12.3 101480 62
2006-04-21 07:04:18 51°13.627 2°55.978 -999 108 12.3 101480 62
2006-04-21 07:04:23 51°13.628 2°55.973 -999 108 12.3 101480 62
2006-04-21 07:04:28 51°13.63 2°55.968 -999 107 12.3 101480 62
2006-04-21 07:04:33 51°13.631 2°55.962 -999 107 12.3 101480 62
2006-04-21 07:04:38 51°13.633 2°55.957 -999 104 12.3 101480 62
2006-04-21 07:04:43 51°13.634 2°55.952 -999 104 12.4 101480 62
2006-04-21 07:04:48 51°13.635 2°55.947 -999 104 12.4 101480 62
2006-04-21 07:04:53 51°13.637 2°55.941 -999 103 12.3 101480 62
2006-04-21 07:04:58 51°13.638 2°55.936 -999 98 12.3 101480 62
2006-04-21 07:05:03 51°13.64 2°55.931 -999 95 12.4 101480 62
2006-04-21 07:05:08 51°13.641 2°55.926 -999 93 12.4 101480 62
2006-04-21 07:05:13 51°13.643 2°55.921 -999 92 12.4 101480 62
2006-04-21 07:05:18 51°13.644 2°55.916 -999 89 12.4 101480 62
2006-04-21 07:05:23 51°13.646 2°55.91 -999 89 12.4 101480 62
2006-04-21 07:05:28 51°13.648 2°55.905 -999 89 12.4 101480 62
2006-04-21 07:05:33 51°13.65 2°55.9 -999 89 12.4 101480 62
2006-04-21 07:05:38 51°13.651 2°55.894 -999 89 12.4 101480 62
2006-04-21 07:05:43 51°13.653 2°55.889 -999 89 12.4 101480 62
2006-04-21 07:05:48 51°13.655 2°55.883 -999 89 12.4 101480 62
2006-04-21 07:05:53 51°13.657 2°55.878 -999 89 12.4 101480 62
2006-04-21 07:05:58 51°13.659 2°55.873 -999 88 12.4 101480 62
2006-04-21 07:06:03 51°13.661 2°55.867 -999 88 12.4 101480 62
2006-04-21 07:06:08 51°13.662 2°55.861 -999 85 12.4 101480 62
2006-04-21 07:06:13 51°13.664 2°55.855 -999 85 12.4 101480 62
2006-04-21 07:06:18 51°13.666 2°55.849 -999 110 12.4 101480 62
2006-04-21 07:06:23 51°13.669 2°55.842 -999 124 12.4 101480 62
2006-04-21 07:06:28 51°13.672 2°55.835 -999 128 12.4 101480 62
2006-04-21 07:06:33 51°13.675 2°55.828 -999 128 12.4 101490 62
2006-04-21 07:06:38 51°13.678 2°55.821 -999 122 12.4 101490 62
2006-04-21 07:06:43 51°13.68 2°55.815 -999 108 12.5 101480 62
2006-04-21 07:06:48 51°13.682 2°55.809 -999 95 12.5 101480 62
2006-04-21 07:06:53 51°13.685 2°55.803 -999 122 12.4 101480 62
2006-04-21 07:06:58 51°13.687 2°55.798 -999 126 12.4 101480 62
2006-04-21 07:07:02 51°13.688 2°55.794 -999 126 12.4 101480 62
2006-04-21 07:07:06 51°13.69 2°55.79 -999 117 12.4 101480 62
2006-04-21 07:07:12 51°13.692 2°55.786 -999 109 12.4 101480 62
2006-04-21 07:07:17 51°13.693 2°55.783 -999 77 12.4 101480 62
2006-04-21 07:07:23 51°13.694 2°55.781 -999 26 12.5 101480 62
2006-04-21 07:07:28 51°13.695 2°55.782 -999 29 12.5 101480 62
2006-04-21 07:07:32 51°13.695 2°55.783 -999 32 12.5 101480 62
2006-04-21 07:07:37 51°13.695 2°55.784 -999 33 12.5 101480 62
2006-04-21 07:07:43 51°13.694 2°55.785 -999 65 12.5 101490 62
2006-04-21 07:07:48 51°13.695 2°55.784 -999 68 12.5 101490 62
2006-04-21 07:07:52 51°13.695 2°55.784 -999 88 12.4 101480 62
2006-04-21 07:07:57 51°13.695 2°55.782 -999 126 12.4 101480 62
2006-04-21 07:08:02 51°13.695 2°55.778 -999 134 12.5 101480 62
2006-04-21 07:08:07 51°13.695 2°55.774 -999 143 12.5 101480 62
2006-04-21 07:08:12 51°13.695 2°55.77 -999 143 12.4 101490 62
2006-04-21 07:08:17 51°13.695 2°55.766 -999 145 12.4 101490 62
2006-04-21 07:08:23 51°13.695 2°55.761 -999 147 12.5 101480 62
2006-04-21 07:08:28 51°13.694 2°55.759 -999 141 12.5 101480 62
2006-04-21 07:08:33 51°13.694 2°55.757 -999 138 12.4 101490 62
2006-04-21 07:08:38 51°13.694 2°55.755 -999 128 12.4 101490 62
2006-04-21 07:08:43 51°13.694 2°55.755 -999 134 12.4 101490 62
2006-04-21 07:08:48 51°13.694 2°55.754 -999 123 12.4 101490 62
2006-04-21 07:08:53 51°13.694 2°55.754 -999 123 12.4 101480 62
2006-04-21 07:08:58 51°13.695 2°55.755 -999 124 12.4 101480 62
2006-04-21 07:09:03 51°13.696 2°55.756 -999 101 12.4 101490 62
2006-04-21 07:09:08 51°13.697 2°55.758 -999 90 12.4 101490 62
2006-04-21 07:09:13 51°13.698 2°55.758 -999 100 12.4 101480 62
2006-04-21 07:09:18 51°13.698 2°55.759 -999 139 12.4 101480 62
2006-04-21 07:09:23 51°13.698 2°55.758 -999 147 12.4 101480 62
2006-04-21 07:09:28 51°13.697 2°55.757 -999 149 12.4 101480 62
2006-04-21 07:09:33 51°13.696 2°55.755 -999 154 12.4 101480 62
2006-04-21 07:09:38 51°13.695 2°55.754 -999 151 12.4 101480 62
2006-04-21 07:09:43 51°13.695 2°55.753 -999 156 12.4 101490 62
2006-04-21 07:09:48 51°13.695 2°55.753 -999 152 12.4 101490 62
2006-04-21 07:09:52 51°13.696 2°55.754 -999 148 12.4 101480 62
2006-04-21 07:09:57 51°13.698 2°55.754 -999 90 12.4 101480 62
2006-04-21 07:10:03 51°13.702 2°55.755 -999 22 12.4 101480 62
2006-04-21 07:10:08 51°13.707 2°55.754 -999 19 12.4 101480 62
2006-04-21 07:10:13 51°13.711 2°55.752 -999 15 12.3 101490 62
2006-04-21 07:10:17 51°13.714 2°55.75 -999 10 12.3 101490 62
2006-04-21 07:10:21 51°13.717 2°55.749 -999 10 12.4 101480 62
2006-04-21 07:10:27 51°13.722 2°55.745 -999 10 12.4 101480 62
2006-04-21 07:10:33 51°13.726 2°55.742 -999 10 12.4 101490 62
2006-04-21 07:10:38 51°13.73 2°55.738 -999 10 12.4 101490 62
2006-04-21 07:10:43 51°13.734 2°55.734 -999 18 12.4 101490 62
2006-04-21 07:10:47 51°13.737 2°55.731 -999 22 12.4 101490 62
2006-04-21 07:10:53 51°13.742 2°55.725 -999 22 12.3 101480 62
2006-04-21 07:10:57 51°13.746 2°55.721 -999 17 12.3 101480 62
2006-04-21 07:11:01 51°13.751 2°55.716 -999 10 12.3 101490 62
2006-04-21 07:11:07 51°13.758 2°55.708 -999 1 12.3 101490 62
2006-04-21 07:11:12 51°13.765 2°55.701 -999 14 12.3 101490 62
2006-04-21 07:11:17 51°13.773 2°55.693 -999 8 12.3 101490 62
2006-04-21 07:11:21 51°13.779 2°55.687 -999 7 12.3 101490 62
2006-04-21 07:11:27 51°13.79 2°55.677 -999 9 12.3 101490 62
2006-04-21 07:11:32 51°13.799 2°55.667 -999 9 12.3 101490 62
2006-04-21 07:11:37 51°13.809 2°55.658 -999 11 12.3 101490 62
2006-04-21 07:11:41 51°13.816 2°55.651 -999 5 12.4 101490 63
2006-04-21 07:11:47 51°13.829 2°55.64 -999 12 12.4 101490 63
2006-04-21 07:11:52 51°13.839 2°55.631 -999 11 12.3 101490 62
2006-04-21 07:11:57 51°13.85 2°55.623 -999 13 12.3 101490 62
2006-04-21 07:12:03 51°13.863 2°55.613 -999 11 12.3 101490 62
2006-04-21 07:12:08 51°13.874 2°55.604 -999 5 12.3 101490 62
2006-04-21 07:12:13 51°13.884 2°55.596 -999 15 12.3 101490 62
2006-04-21 07:12:17 51°13.893 2°55.589 -999 13 12.3 101490 62
2006-04-21 07:12:22 51°13.903 2°55.581 -999 13 12.3 101490 62
2006-04-21 07:12:28 51°13.916 2°55.572 -999 17 12.3 101490 62
2006-04-21 07:12:33 51°13.926 2°55.563 -999 14 12.3 101490 62
2006-04-21 07:12:37 51°13.935 2°55.557 -999 18 12.3 101490 62
2006-04-21 07:12:42 51°13.945 2°55.549 -999 17 12.3 101490 62
2006-04-21 07:12:48 51°13.958 2°55.54 -999 29 12.3 101490 62
2006-04-21 07:12:52 51°13.966 2°55.534 -999 25 12.3 101490 62
2006-04-21 07:12:57 51°13.977 2°55.527 -999 20 12.3 101490 62
2006-04-21 07:13:02 51°13.987 2°55.518 -999 9 12.3 101490 63
2006-04-21 07:13:07 51°13.998 2°55.511 -999 14 12.3 101490 63
2006-04-21 07:13:13 51°14.01 2°55.501 -999 13 12.3 101480 62
2006-04-21 07:13:17 51°14.019 2°55.495 -999 14 12.3 101480 62
2006-04-21 07:13:23 51°14.031 2°55.486 -999 19 12.3 101490 62
2006-04-21 07:13:28 51°14.042 2°55.479 -999 13 12.3 101490 62
2006-04-21 07:13:33 51°14.052 2°55.472 -999 14 12.3 101490 62
2006-04-21 07:13:38 51°14.062 2°55.464 -999 13 12.3 101490 62
2006-04-21 07:13:42 51°14.071 2°55.458 -999 13 12.3 101490 62
2006-04-21 07:13:48 51°14.083 2°55.449 -999 11 12.3 101490 62
2006-04-21 07:13:52 51°14.091 2°55.443 -999 12 12.3 101490 62
2006-04-21 07:13:58 51°14.104 2°55.434 -999 10 12.3 101490 62
2006-04-21 07:14:03 51°14.114 2°55.426 -999 12 12.3 101490 62
2006-04-21 07:14:08 51°14.124 2°55.417 -999 13 12.3 101490 62
2006-04-21 07:14:13 51°14.134 2°55.409 -999 18 12.3 101490 62
2006-04-21 07:14:18 51°14.144 2°55.401 -999 14 12.3 101490 62
2006-04-21 07:14:23 51°14.154 2°55.392 -999 16 12.3 101490 62
2006-04-21 07:14:27 51°14.162 2°55.385 -999 19 12.3 101490 62
2006-04-21 07:14:33 51°14.174 2°55.374 -999 22 12.3 101490 62
2006-04-21 07:14:37 51°14.182 2°55.366 -999 16 12.3 101490 62
2006-04-21 07:14:43 51°14.193 2°55.354 -999 12 12.3 101490 62
2006-04-21 07:14:48 51°14.202 2°55.343 -999 9 12.3 101490 62
2006-04-21 07:14:53 51°14.211 2°55.332 -999 9 12.3 101490 62
2006-04-21 07:14:57 51°14.219 2°55.323 -999 8 12.3 101490 62
2006-04-21 07:15:02 51°14.227 2°55.311 -999 11 12.3 101480 61
2006-04-21 07:15:08 51°14.237 2°55.296 -999 5 12.3 101480 61
2006-04-21 07:15:13 51°14.245 2°55.284 -999 10 12.3 101490 62
2006-04-21 07:15:17 51°14.252 2°55.273 -999 4 12.3 101490 62
2006-04-21 07:15:23 51°14.261 2°55.257 -999 7 12.3 101490 62
2006-04-21 07:15:27 51°14.267 2°55.247 -999 7 12.3 101490 62
2006-04-21 07:15:33 51°14.276 2°55.23 -999 6 12.3 101490 62
2006-04-21 07:15:38 51°14.284 2°55.217 -999 8 12.3 101490 62
2006-04-21 07:15:43 51°14.291 2°55.203 -999 6 12.3 101490 62
2006-04-21 07:15:47 51°14.297 2°55.191 -999 7 12.3 101490 62
2006-04-21 07:15:52 51°14.304 2°55.177 -999 5 12.3 101490 62
2006-04-21 07:15:57 51°14.312 2°55.163 -999 6 12.3 101490 62
2006-04-21 07:16:03 51°14.321 2°55.146 -999 7 12.3 101490 62
2006-04-21 07:16:08 51°14.328 2°55.132 -999 3 12.3 101490 62
2006-04-21 07:16:13 51°14.335 2°55.118 -999 6 12.3 101490 62
2006-04-21 07:16:17 51°14.341 2°55.106 -999 6 12.3 101490 62
2006-04-21 07:16:23 51°14.35 2°55.088 -999 5 12.3 101490 62
2006-04-21 07:16:27 51°14.355 2°55.076 -999 4 12.3 101490 62
2006-04-21 07:16:32 51°14.361 2°55.06 -999 5 12.3 101490 62
2006-04-21 07:16:37 51°14.368 2°55.043 -999 3 12.3 101490 62
2006-04-21 07:16:42 51°14.374 2°55.026 -999 2 12.3 101490 62
2006-04-21 07:16:48 51°14.381 2°55.004 -999 3 12.3 101490 62
2006-04-21 07:16:52 51°14.386 2°54.988 -999 1 12.3 101480 62
2006-04-21 07:16:57 51°14.392 2°54.969 -999 359 12.3 101480 62
2006-04-21 07:17:01 51°14.397 2°54.953 -999 359 12.3 101480 62
2006-04-21 07:17:07 51°14.403 2°54.928 -999 1 12.3 101480 62
2006-04-21 07:17:12 51°14.408 2°54.907 -999 -999 12.3 101480 62
2006-04-21 07:17:17 51°14.413 2°54.886 -999 359 12.3 101480 62
2006-04-21 07:17:21 51°14.416 2°54.868 -999 2 12.3 101480 61
2006-04-21 07:17:28 51°14.42 2°54.837 -999 359 12.3 101480 61
2006-04-21 07:17:32 51°14.423 2°54.819 -999 358 12.3 101490 61
2006-04-21 07:17:37 51°14.425 2°54.796 -999 352 12.3 101490 61
2006-04-21 07:17:42 51°14.427 2°54.773 -999 356 12.3 101490 61
2006-04-21 07:17:47 51°14.429 2°54.75 -999 356 12.3 101490 61
2006-04-21 07:17:53 51°14.431 2°54.721 -999 355 12.4 101480 61
2006-04-21 07:17:57 51°14.433 2°54.702 -999 353 12.4 101480 61
2006-04-21 07:18:02 51°14.435 2°54.678 -999 350 12.4 101480 61
2006-04-21 07:18:07 51°14.436 2°54.655 -999 353 12.4 101480 61
2006-04-21 07:18:12 51°14.436 2°54.631 -999 347 12.4 101490 61
2006-04-21 07:18:17 51°14.435 2°54.607 -999 346 12.4 101490 61
2006-04-21 07:18:21 51°14.434 2°54.589 -999 347 12.3 101480 61
2006-04-21 07:18:28 51°14.431 2°54.556 -999 342 12.3 101480 61
2006-04-21 07:18:32 51°14.43 2°54.537 -999 343 12.4 101480 61
2006-04-21 07:18:38 51°14.427 2°54.509 -999 338 12.4 101480 61
2006-04-21 07:18:42 51°14.425 2°54.49 -999 338 12.4 101490 61
2006-04-21 07:18:47 51°14.423 2°54.467 -999 339 12.4 101490 61
2006-04-21 07:18:52 51°14.421 2°54.443 -999 340 12.4 101480 61
2006-04-21 07:18:57 51°14.418 2°54.42 -999 336 12.4 101480 61
2006-04-21 07:19:03 51°14.415 2°54.392 -999 342 12.4 101480 61
2006-04-21 07:19:08 51°14.412 2°54.368 -999 336 12.4 101480 61
2006-04-21 07:19:12 51°14.41 2°54.35 -999 339 12.4 101490 61
2006-04-21 07:19:17 51°14.406 2°54.328 -999 330 12.4 101490 61
2006-04-21 07:19:23 51°14.4 2°54.302 -999 337 12.4 101480 61
2006-04-21 07:19:28 51°14.393 2°54.281 -999 339 12.4 101480 61
2006-04-21 07:19:32 51°14.388 2°54.264 -999 339 12.4 101480 61
2006-04-21 07:19:37 51°14.38 2°54.244 -999 343 12.4 101480 61
2006-04-21 07:19:41 51°14.374 2°54.228 -999 341 12.4 101490 61
2006-04-21 07:19:47 51°14.365 2°54.206 -999 340 12.4 101490 61
2006-04-21 07:19:52 51°14.358 2°54.189 -999 346 12.4 101480 62
2006-04-21 07:19:57 51°14.351 2°54.173 -999 342 12.4 101480 62
2006-04-21 07:20:02 51°14.343 2°54.158 -999 344 12.4 101480 62
2006-04-21 07:20:08 51°14.335 2°54.141 -999 345 12.4 101480 62
2006-04-21 07:20:12 51°14.33 2°54.129 -999 347 12.4 101480 62
2006-04-21 07:20:17 51°14.323 2°54.115 -999 343 12.4 101480 62
2006-04-21 07:20:22 51°14.317 2°54.101 -999 346 12.4 101480 63
2006-04-21 07:20:27 51°14.312 2°54.088 -999 344 12.4 101480 63
2006-04-21 07:20:33 51°14.305 2°54.071 -999 346 12.3 101480 62
2006-04-21 07:20:37 51°14.301 2°54.061 -999 336 12.3 101480 62
2006-04-21 07:20:43 51°14.295 2°54.045 -999 336 12.3 101480 62
2006-04-21 07:20:47 51°14.291 2°54.034 -999 331 12.3 101480 62
2006-04-21 07:20:52 51°14.286 2°54.021 -999 330 12.4 101480 62
2006-04-21 07:20:58 51°14.281 2°54.007 -999 329 12.4 101480 62
2006-04-21 07:21:02 51°14.278 2°53.997 -999 327 12.3 101480 62
2006-04-21 07:21:07 51°14.274 2°53.986 -999 323 12.3 101480 62
2006-04-21 07:21:12 51°14.271 2°53.975 -999 324 12.4 101490 61
2006-04-21 07:21:17 51°14.267 2°53.963 -999 322 12.4 101490 61
2006-04-21 07:21:22 51°14.264 2°53.952 -999 323 12.4 101480 61
2006-04-21 07:21:27 51°14.26 2°53.942 -999 323 12.4 101480 61
2006-04-21 07:21:32 51°14.257 2°53.931 -999 319 12.4 101480 60
2006-04-21 07:21:37 51°14.254 2°53.921 -999 318 12.4 101480 60
2006-04-21 07:21:42 51°14.251 2°53.911 -999 315 12.4 101490 60
2006-04-21 07:21:47 51°14.248 2°53.901 -999 44 12.4 101490 60
2006-04-21 07:21:52 51°14.245 2°53.891 -999 315 12.4 101480 60
2006-04-21 07:21:57 51°14.243 2°53.881 -999 228 12.4 101480 60
2006-04-21 07:22:02 51°14.24 2°53.871 -999 313 12.4 101480 60
2006-04-21 07:22:08 51°14.237 2°53.859 -999 314 12.4 101480 60
2006-04-21 07:22:12 51°14.235 2°53.852 -999 228 12.4 101490 60
2006-04-21 07:22:17 51°14.233 2°53.842 -999 311 12.4 101490 60
2006-04-21 07:22:21 51°14.231 2°53.834 -999 311 12.4 101480 60
2006-04-21 07:22:28 51°14.229 2°53.82 -999 311 12.4 101480 60
2006-04-21 07:22:33 51°14.226 2°53.811 -999 310 12.4 101490 60
2006-04-21 07:22:37 51°14.225 2°53.804 -999 43 12.4 101490 60
2006-04-21 07:22:42 51°14.223 2°53.794 -999 314 12.4 101480 60
2006-04-21 07:22:47 51°14.221 2°53.785 -999 313 12.4 101480 60
2006-04-21 07:22:52 51°14.218 2°53.776 -999 313 12.4 101490 60
2006-04-21 07:22:58 51°14.216 2°53.765 -999 42 12.4 101490 60
2006-04-21 07:23:03 51°14.213 2°53.757 -999 43 12.4 101490 60
2006-04-21 07:23:08 51°14.21 2°53.748 -999 227 12.4 101490 60
2006-04-21 07:23:13 51°14.208 2°53.74 -999 42 12.4 101480 60
2006-04-21 07:23:17 51°14.205 2°53.733 -999 317 12.4 101480 60
2006-04-21 07:23:22 51°14.202 2°53.725 -999 316 12.5 101490 61
2006-04-21 07:23:28 51°14.199 2°53.715 -999 316 12.5 101490 61
2006-04-21 07:23:32 51°14.196 2°53.709 -999 316 12.4 101480 61
2006-04-21 07:23:37 51°14.193 2°53.701 -999 42 12.4 101480 61
2006-04-21 07:23:42 51°14.19 2°53.694 -999 227 12.4 101480 60
2006-04-21 07:23:47 51°14.186 2°53.686 -999 227 12.4 101480 60
2006-04-21 07:23:52 51°14.183 2°53.679 -999 316 12.4 101480 60
2006-04-21 07:23:57 51°14.18 2°53.671 -999 43 12.4 101480 60
2006-04-21 07:24:02 51°14.176 2°53.663 -999 314 12.4 101480 60
2006-04-21 07:24:08 51°14.172 2°53.654 -999 309 12.4 101480 60
2006-04-21 07:24:13 51°14.169 2°53.647 -999 313 12.4 101480 60
2006-04-21 07:24:17 51°14.166 2°53.641 -999 312 12.4 101480 60
2006-04-21 07:24:21 51°14.163 2°53.635 -999 41 12.4 101490 60
2006-04-21 07:24:28 51°14.159 2°53.624 -999 313 12.4 101490 60
2006-04-21 07:24:32 51°14.156 2°53.618 -999 311 12.5 101490 60
2006-04-21 07:24:37 51°14.153 2°53.61 -999 315 12.5 101490 60
2006-04-21 07:24:42 51°14.149 2°53.603 -999 314 12.4 101480 60
2006-04-21 07:24:47 51°14.146 2°53.595 -999 307 12.4 101480 60
2006-04-21 07:24:52 51°14.143 2°53.587 -999 311 12.4 101490 60
2006-04-21 07:24:57 51°14.14 2°53.579 -999 306 12.4 101490 60
2006-04-21 07:25:01 51°14.137 2°53.573 -999 304 12.5 101480 60
2006-04-21 07:25:07 51°14.134 2°53.564 -999 302 12.5 101480 60
2006-04-21 07:25:12 51°14.131 2°53.556 -999 301 12.4 101480 60
2006-04-21 07:25:17 51°14.128 2°53.548 -999 300 12.4 101480 60
2006-04-21 07:25:22 51°14.125 2°53.54 -999 300 12.5 101480 60
2006-04-21 07:25:27 51°14.122 2°53.532 -999 300 12.5 101480 60
2006-04-21 07:25:32 51°14.118 2°53.524 -999 300 12.5 101480 60
2006-04-21 07:25:37 51°14.115 2°53.516 -999 301 12.5 101480 60
2006-04-21 07:25:42 51°14.112 2°53.508 -999 300 12.5 101480 60
2006-04-21 07:25:47 51°14.109 2°53.5 -999 299 12.5 101480 60
2006-04-21 07:25:51 51°14.107 2°53.493 -999 299 12.5 101480 60
2006-04-21 07:25:57 51°14.103 2°53.484 -999 300 12.5 101480 60
2006-04-21 07:26:02 51°14.101 2°53.475 -999 297 12.5 101490 60
2006-04-21 07:26:07 51°14.098 2°53.467 -999 293 12.5 101490 60
2006-04-21 07:26:12 51°14.095 2°53.458 -999 294 12.5 101480 60
2006-04-21 07:26:17 51°14.093 2°53.45 -999 291 12.5 101480 60
2006-04-21 07:26:23 51°14.09 2°53.44 -999 292 12.5 101480 60
2006-04-21 07:26:27 51°14.088 2°53.433 -999 289 12.5 101480 60
2006-04-21 07:26:32 51°14.086 2°53.424 -999 289 12.5 101480 60
2006-04-21 07:26:37 51°14.083 2°53.415 -999 290 12.5 101480 60
2006-04-21 07:26:41 51°14.082 2°53.409 -999 289 12.5 101490 60
2006-04-21 07:26:47 51°14.079 2°53.398 -999 294 12.5 101490 60
2006-04-21 07:26:52 51°14.077 2°53.389 -999 294 12.5 101490 61
2006-04-21 07:26:57 51°14.075 2°53.38 -999 294 12.5 101490 61
2006-04-21 07:27:03 51°14.072 2°53.37 -999 295 12.5 101480 61
2006-04-21 07:27:07 51°14.07 2°53.363 -999 293 12.5 101480 61
2006-04-21 07:27:13 51°14.067 2°53.353 -999 295 12.5 101480 60
2006-04-21 07:27:18 51°14.065 2°53.344 -999 295 12.5 101480 60
2006-04-21 07:27:23 51°14.062 2°53.336 -999 297 12.5 101480 60
2006-04-21 07:27:28 51°14.06 2°53.328 -999 296 12.5 101480 60
2006-04-21 07:27:32 51°14.057 2°53.321 -999 298 12.5 101480 60
2006-04-21 07:27:37 51°14.054 2°53.313 -999 297 12.5 101480 60
2006-04-21 07:27:43 51°14.051 2°53.304 -999 301 12.5 101490 60
2006-04-21 07:27:47 51°14.048 2°53.298 -999 304 12.5 101490 60
2006-04-21 07:27:53 51°14.044 2°53.288 -999 310 12.5 101480 60
2006-04-21 07:27:58 51°14.041 2°53.281 -999 306 12.5 101480 60
2006-04-21 07:28:03 51°14.037 2°53.273 -999 307 12.5 101490 60
2006-04-21 07:28:07 51°14.035 2°53.267 -999 303 12.5 101490 60
2006-04-21 07:28:12 51°14.031 2°53.26 -999 305 12.5 101480 60
2006-04-21 07:28:17 51°14.028 2°53.253 -999 306 12.5 101480 60
2006-04-21 07:28:21 51°14.025 2°53.247 -999 304 12.5 101480 60
2006-04-21 07:28:27 51°14.02 2°53.238 -999 302 12.5 101480 60
2006-04-21 07:28:32 51°14.017 2°53.231 -999 305 12.5 101490 60
2006-04-21 07:28:37 51°14.014 2°53.224 -999 305 12.5 101490 60
2006-04-21 07:28:41 51°14.011 2°53.218 -999 305 12.5 101480 60
2006-04-21 07:28:48 51°14.006 2°53.208 -999 301 12.5 101480 60
2006-04-21 07:28:52 51°14.003 2°53.202 -999 306 12.5 101480 60
2006-04-21 07:28:57 51°13.999 2°53.195 -999 305 12.5 101480 60
2006-04-21 07:29:02 51°13.995 2°53.188 -999 304 12.5 101490 60
2006-04-21 07:29:07 51°13.992 2°53.181 -999 306 12.5 101490 60
2006-04-21 07:29:12 51°13.988 2°53.174 -999 309 12.5 101490 60
2006-04-21 07:29:17 51°13.984 2°53.166 -999 305 12.5 101490 60
2006-04-21 07:29:22 51°13.98 2°53.159 -999 307 12.5 101490 60
2006-04-21 07:29:27 51°13.977 2°53.152 -999 303 12.5 101490 60
2006-04-21 07:29:32 51°13.973 2°53.145 -999 305 12.5 101480 60
2006-04-21 07:29:37 51°13.969 2°53.138 -999 303 12.5 101480 60
2006-04-21 07:29:42 51°13.966 2°53.13 -999 301 12.5 101490 60
2006-04-21 07:29:47 51°13.962 2°53.123 -999 299 12.5 101490 60
2006-04-21 07:29:52 51°13.959 2°53.115 -999 300 12.5 101490 60
2006-04-21 07:29:58 51°13.955 2°53.106 -999 299 12.5 101490 60
2006-04-21 07:30:02 51°13.953 2°53.1 -999 298 12.5 101480 60
2006-04-21 07:30:07 51°13.95 2°53.092 -999 296 12.5 101480 60
2006-04-21 07:30:12 51°13.947 2°53.084 -999 295 12.5 101490 61
2006-04-21 07:30:17 51°13.944 2°53.076 -999 292 12.5 101490 61
2006-04-21 07:30:22 51°13.941 2°53.068 -999 293 12.5 101490 61
2006-04-21 07:30:28 51°13.937 2°53.058 -999 293 12.5 101490 61
2006-04-21 07:30:32 51°13.935 2°53.052 -999 297 12.5 101490 60
2006-04-21 07:30:37 51°13.932 2°53.044 -999 294 12.5 101490 60
2006-04-21 07:30:42 51°13.929 2°53.036 -999 293 12.6 101490 60
2006-04-21 07:30:47 51°13.926 2°53.028 -999 296 12.6 101490 60
2006-04-21 07:30:52 51°13.922 2°53.02 -999 293 12.5 101490 60
2006-04-21 07:30:57 51°13.919 2°53.012 -999 293 12.5 101490 60
2006-04-21 07:31:02 51°13.916 2°53.004 -999 295 12.6 101480 60
2006-04-21 07:31:08 51°13.912 2°52.995 -999 293 12.6 101480 60
2006-04-21 07:31:12 51°13.909 2°52.989 -999 295 12.6 101480 60
2006-04-21 07:31:17 51°13.906 2°52.981 -999 296 12.6 101480 60
2006-04-21 07:31:22 51°13.903 2°52.973 -999 294 12.6 101480 60
2006-04-21 07:31:27 51°13.899 2°52.965 -999 295 12.6 101480 60
2006-04-21 07:31:33 51°13.896 2°52.956 -999 294 12.6 101490 60
2006-04-21 07:31:37 51°13.893 2°52.95 -999 295 12.6 101490 60
2006-04-21 07:31:42 51°13.89 2°52.942 -999 295 12.6 101480 60
2006-04-21 07:31:47 51°13.887 2°52.934 -999 294 12.6 101480 60
2006-04-21 07:31:52 51°13.884 2°52.926 -999 293 12.6 101490 60
2006-04-21 07:31:57 51°13.881 2°52.918 -999 291 12.6 101490 60
2006-04-21 07:32:01 51°13.879 2°52.911 -999 290 12.6 101490 60
2006-04-21 07:32:07 51°13.875 2°52.901 -999 289 12.6 101490 60
2006-04-21 07:32:12 51°13.873 2°52.893 -999 289 12.6 101490 60
2006-04-21 07:32:17 51°13.87 2°52.884 -999 288 12.6 101490 60
2006-04-21 07:32:22 51°13.867 2°52.876 -999 288 12.6 101490 60
2006-04-21 07:32:27 51°13.865 2°52.867 -999 287 12.6 101490 60
2006-04-21 07:32:32 51°13.863 2°52.859 -999 286 12.6 101490 60
2006-04-21 07:32:37 51°13.86 2°52.85 -999 285 12.6 101490 60
2006-04-21 07:32:43 51°13.858 2°52.839 -999 284 12.6 101490 61
2006-04-21 07:32:47 51°13.856 2°52.832 -999 283 12.6 101490 61
2006-04-21 07:32:52 51°13.854 2°52.823 -999 283 12.6 101490 61
2006-04-21 07:32:57 51°13.852 2°52.815 -999 281 12.6 101490 61
2006-04-21 07:33:01 51°13.85 2°52.808 -999 281 12.6 101490 61
2006-04-21 07:33:07 51°13.847 2°52.797 -999 282 12.6 101490 61
2006-04-21 07:33:13 51°13.844 2°52.786 -999 286 12.6 101490 61
2006-04-21 07:33:17 51°13.842 2°52.78 -999 286 12.6 101490 61
2006-04-21 07:33:22 51°13.84 2°52.771 -999 286 12.6 101490 61
2006-04-21 07:33:27 51°13.837 2°52.763 -999 292 12.6 101490 61
2006-04-21 07:33:32 51°13.835 2°52.754 -999 294 12.6 101490 61
2006-04-21 07:33:37 51°13.832 2°52.746 -999 296 12.6 101490 61
2006-04-21 07:33:42 51°13.829 2°52.738 -999 296 12.6 101490 61
2006-04-21 07:33:47 51°13.826 2°52.73 -999 303 12.6 101490 61
2006-04-21 07:33:53 51°13.822 2°52.72 -999 303 12.6 101490 61
2006-04-21 07:33:58 51°13.819 2°52.713 -999 303 12.6 101490 61
2006-04-21 07:34:02 51°13.816 2°52.706 -999 303 12.6 101490 61
2006-04-21 07:34:07 51°13.813 2°52.699 -999 304 12.6 101490 61
2006-04-21 07:34:12 51°13.809 2°52.691 -999 306 12.6 101490 61
2006-04-21 07:34:18 51°13.806 2°52.682 -999 306 12.6 101490 61
2006-04-21 07:34:21 51°13.803 2°52.677 -999 307 12.6 101490 61
2006-04-21 07:34:27 51°13.8 2°52.668 -999 304 12.6 101490 61
2006-04-21 07:34:32 51°13.796 2°52.661 -999 305 12.6 101490 61
2006-04-21 07:34:37 51°13.793 2°52.653 -999 306 12.6 101490 61
2006-04-21 07:34:43 51°13.788 2°52.644 -999 303 12.6 101490 61
2006-04-21 07:34:47 51°13.786 2°52.638 -999 304 12.6 101490 61
2006-04-21 07:34:52 51°13.782 2°52.631 -999 307 12.6 101490 61
2006-04-21 07:34:57 51°13.778 2°52.624 -999 310 12.6 101490 61
2006-04-21 07:35:03 51°13.773 2°52.615 -999 311 12.6 101490 60
2006-04-21 07:35:08 51°13.77 2°52.608 -999 313 12.6 101490 60
2006-04-21 07:35:12 51°13.767 2°52.602 -999 314 12.6 101490 61
2006-04-21 07:35:17 51°13.763 2°52.595 -999 311 12.6 101490 61
2006-04-21 07:35:22 51°13.759 2°52.588 -999 313 12.5 101490 61
2006-04-21 07:35:28 51°13.754 2°52.579 -999 314 12.5 101490 61
2006-04-21 07:35:32 51°13.751 2°52.573 -999 314 12.5 101490 61
2006-04-21 07:35:37 51°13.747 2°52.566 -999 313 12.5 101490 61
2006-04-21 07:35:42 51°13.744 2°52.559 -999 314 12.5 101490 61
2006-04-21 07:35:47 51°13.74 2°52.552 -999 315 12.5 101490 61
2006-04-21 07:35:52 51°13.736 2°52.544 -999 312 12.6 101490 61
2006-04-21 07:35:57 51°13.733 2°52.537 -999 313 12.6 101490 61
2006-04-21 07:36:02 51°13.729 2°52.53 -999 313 12.6 101490 60
2006-04-21 07:36:07 51°13.725 2°52.522 -999 310 12.6 101490 60
2006-04-21 07:36:13 51°13.721 2°52.513 -999 312 12.6 101490 60
2006-04-21 07:36:18 51°13.717 2°52.506 -999 314 12.6 101490 60
2006-04-21 07:36:21 51°13.715 2°52.501 -999 311 12.5 101490 60
2006-04-21 07:36:27 51°13.711 2°52.492 -999 306 12.5 101490 60
2006-04-21 07:36:32 51°13.707 2°52.484 -999 311 12.5 101490 60
2006-04-21 07:36:37 51°13.704 2°52.477 -999 311 12.5 101490 60
2006-04-21 07:36:42 51°13.701 2°52.469 -999 306 12.6 101490 60
2006-04-21 07:36:47 51°13.697 2°52.461 -999 305 12.6 101490 60
2006-04-21 07:36:52 51°13.694 2°52.453 -999 309 12.6 101490 60
2006-04-21 07:36:58 51°13.69 2°52.444 -999 303 12.6 101490 60
2006-04-21 07:37:02 51°13.688 2°52.438 -999 305 12.6 101490 61
2006-04-21 07:37:07 51°13.684 2°52.431 -999 311 12.6 101490 61
2006-04-21 07:37:13 51°13.68 2°52.422 -999 313 12.6 101490 61
2006-04-21 07:37:17 51°13.676 2°52.418 -999 42 12.6 101490 61
2006-04-21 07:37:21 51°13.672 2°52.414 -999 318 12.6 101490 61
2006-04-21 07:37:28 51°13.665 2°52.409 -999 322 12.6 101490 61
2006-04-21 07:37:32 51°13.661 2°52.408 -999 328 12.6 101490 61
2006-04-21 07:37:37 51°13.655 2°52.407 -999 331 12.6 101490 61
2006-04-21 07:37:42 51°13.65 2°52.407 -999 334 12.6 101490 61
2006-04-21 07:37:48 51°13.643 2°52.408 -999 341 12.6 101490 61
2006-04-21 07:37:52 51°13.639 2°52.41 -999 344 12.6 101490 61
2006-04-21 07:37:57 51°13.634 2°52.414 -999 344 12.6 101490 61
2006-04-21 07:38:01 51°13.63 2°52.417 -999 350 12.6 101490 60
2006-04-21 07:38:07 51°13.625 2°52.424 -999 357 12.6 101490 60
2006-04-21 07:38:12 51°13.621 2°52.43 -999 359 12.5 101490 60
2006-04-21 07:38:17 51°13.617 2°52.437 -999 2 12.5 101490 60
2006-04-21 07:38:22 51°13.614 2°52.445 -999 4 12.6 101490 61
2006-04-21 07:38:27 51°13.612 2°52.453 -999 10 12.6 101490 61
2006-04-21 07:38:33 51°13.609 2°52.464 -999 14 12.6 101490 60
2006-04-21 07:38:38 51°13.608 2°52.474 -999 17 12.6 101490 60
2006-04-21 07:38:42 51°13.608 2°52.481 -999 17 12.6 101490 60
2006-04-21 07:38:48 51°13.608 2°52.492 -999 23 12.6 101490 60
2006-04-21 07:38:52 51°13.608 2°52.5 -999 22 12.6 101490 61
2006-04-21 07:38:58 51°13.61 2°52.511 -999 28 12.6 101490 61
2006-04-21 07:39:02 51°13.611 2°52.518 -999 28 12.5 101490 61
2006-04-21 07:39:08 51°13.613 2°52.527 -999 34 12.5 101490 61
2006-04-21 07:39:12 51°13.615 2°52.534 -999 34 12.5 101490 61
2006-04-21 07:39:17 51°13.617 2°52.542 -999 46 12.5 101490 61
2006-04-21 07:39:21 51°13.62 2°52.548 -999 39 12.5 101490 61
2006-04-21 07:39:28 51°13.624 2°52.558 -999 38 12.5 101490 61
2006-04-21 07:39:32 51°13.626 2°52.564 -999 40 12.5 101490 61
2006-04-21 07:39:37 51°13.629 2°52.571 -999 41 12.5 101490 61
2006-04-21 07:39:41 51°13.632 2°52.577 -999 38 12.5 101490 61
2006-04-21 07:39:48 51°13.636 2°52.587 -999 39 12.5 101490 61
2006-04-21 07:39:52 51°13.639 2°52.593 -999 40 12.5 101490 61
2006-04-21 07:39:57 51°13.642 2°52.601 -999 37 12.5 101490 61
2006-04-21 07:40:02 51°13.646 2°52.608 -999 42 12.5 101490 61
2006-04-21 07:40:08 51°13.65 2°52.617 -999 38 12.5 101490 61
2006-04-21 07:40:13 51°13.654 2°52.625 -999 38 12.5 101490 61
2006-04-21 07:40:17 51°13.657 2°52.631 -999 38 12.5 101490 61
2006-04-21 07:40:22 51°13.66 2°52.638 -999 39 12.5 101490 62
2006-04-21 07:40:27 51°13.664 2°52.646 -999 38 12.5 101490 62
2006-04-21 07:40:32 51°13.668 2°52.653 -999 40 12.5 101500 62
2006-04-21 07:40:37 51°13.672 2°52.661 -999 41 12.5 101500 62
2006-04-21 07:40:42 51°13.675 2°52.669 -999 42 12.4 101490 62
2006-04-21 07:40:48 51°13.68 2°52.678 -999 39 12.4 101490 62
2006-04-21 07:40:52 51°13.683 2°52.684 -999 39 12.4 101490 61
2006-04-21 07:40:57 51°13.687 2°52.692 -999 39 12.4 101490 61
2006-04-21 07:41:02 51°13.69 2°52.7 -999 42 12.4 101490 61
2006-04-21 07:41:07 51°13.694 2°52.708 -999 41 12.4 101490 61
2006-04-21 07:41:12 51°13.698 2°52.715 -999 39 12.4 101490 61
2006-04-21 07:41:17 51°13.701 2°52.723 -999 37 12.4 101490 61
2006-04-21 07:41:23 51°13.706 2°52.733 -999 43 12.4 101490 61
2006-04-21 07:41:28 51°13.71 2°52.741 -999 37 12.4 101490 61
2006-04-21 07:41:32 51°13.713 2°52.747 -999 39 12.4 101500 61
2006-04-21 07:41:38 51°13.718 2°52.757 -999 38 12.4 101500 61
2006-04-21 07:41:43 51°13.722 2°52.766 -999 34 12.4 101490 61
2006-04-21 07:41:48 51°13.726 2°52.774 -999 38 12.4 101490 61
2006-04-21 07:41:52 51°13.729 2°52.781 -999 35 12.4 101500 61
2006-04-21 07:41:57 51°13.733 2°52.789 -999 32 12.4 101500 61
2006-04-21 07:42:03 51°13.738 2°52.799 -999 42 12.4 101490 62
2006-04-21 07:42:08 51°13.742 2°52.808 -999 37 12.4 101490 62
2006-04-21 07:42:13 51°13.746 2°52.816 -999 37 12.4 101490 61
2006-04-21 07:42:17 51°13.749 2°52.823 -999 36 12.4 101490 61
2006-04-21 07:42:22 51°13.753 2°52.832 -999 39 12.4 101490 61
2006-04-21 07:42:28 51°13.758 2°52.842 -999 35 12.4 101490 61
2006-04-21 07:42:32 51°13.761 2°52.849 -999 37 12.4 101500 61
2006-04-21 07:42:37 51°13.765 2°52.858 -999 38 12.4 101500 61
2006-04-21 07:42:42 51°13.769 2°52.867 -999 37 12.4 101500 62
2006-04-21 07:42:47 51°13.773 2°52.875 -999 35 12.4 101500 62
2006-04-21 07:42:52 51°13.777 2°52.884 -999 35 12.4 101500 62
2006-04-21 07:42:57 51°13.781 2°52.893 -999 35 12.4 101500 62
2006-04-21 07:43:03 51°13.786 2°52.903 -999 35 12.4 101500 61
2006-04-21 07:43:08 51°13.79 2°52.912 -999 36 12.4 101500 61
2006-04-21 07:43:13 51°13.795 2°52.921 -999 38 12.4 101490 61
2006-04-21 07:43:17 51°13.798 2°52.928 -999 32 12.4 101490 61
2006-04-21 07:43:23 51°13.803 2°52.939 -999 30 12.4 101500 61
2006-04-21 07:43:28 51°13.807 2°52.947 -999 35 12.4 101500 61
2006-04-21 07:43:32 51°13.811 2°52.955 -999 34 12.4 101500 61
2006-04-21 07:43:38 51°13.816 2°52.965 -999 32 12.4 101500 61
2006-04-21 07:43:43 51°13.821 2°52.974 -999 32 12.3 101500 62
2006-04-21 07:43:47 51°13.824 2°52.982 -999 37 12.3 101500 62
2006-04-21 07:43:52 51°13.828 2°52.99 -999 30 12.4 101500 62
2006-04-21 07:43:57 51°13.832 2°53 -999 32 12.4 101500 62
2006-04-21 07:44:03 51°13.837 2°53.01 -999 29 12.3 101500 62
2006-04-21 07:44:08 51°13.841 2°53.02 -999 38 12.3 101500 62
2006-04-21 07:44:13 51°13.845 2°53.028 -999 37 12.4 101500 62
2006-04-21 07:44:17 51°13.849 2°53.036 -999 32 12.4 101500 62
2006-04-21 07:44:22 51°13.853 2°53.045 -999 31 12.3 101500 62
2006-04-21 07:44:28 51°13.858 2°53.056 -999 37 12.3 101500 62
2006-04-21 07:44:32 51°13.861 2°53.063 -999 34 12.4 101500 61
2006-04-21 07:44:37 51°13.865 2°53.073 -999 35 12.4 101500 61
2006-04-21 07:44:42 51°13.869 2°53.082 -999 35 12.4 101500 62
2006-04-21 07:44:48 51°13.873 2°53.093 -999 37 12.4 101500 62
2006-04-21 07:44:53 51°13.877 2°53.102 -999 35 12.4 101500 62
2006-04-21 07:44:57 51°13.88 2°53.109 -999 38 12.4 101500 62
2006-04-21 07:45:01 51°13.884 2°53.117 -999 38 12.4 101500 62
2006-04-21 07:45:08 51°13.889 2°53.13 -999 36 12.4 101500 62
2006-04-21 07:45:12 51°13.893 2°53.137 -999 35 12.4 101500 62
2006-04-21 07:45:17 51°13.896 2°53.146 -999 33 12.4 101500 62
2006-04-21 07:45:22 51°13.901 2°53.155 -999 38 12.4 101500 62
2006-04-21 07:45:27 51°13.904 2°53.165 -999 39 12.4 101500 62
2006-04-21 07:45:33 51°13.909 2°53.175 -999 37 12.4 101500 62
2006-04-21 07:45:38 51°13.913 2°53.184 -999 33 12.4 101500 62
2006-04-21 07:45:41 51°13.915 2°53.19 -999 35 12.4 101500 62
2006-04-21 07:45:47 51°13.92 2°53.201 -999 36 12.4 101500 62
2006-04-21 07:45:52 51°13.925 2°53.21 -999 37 12.4 101500 62
2006-04-21 07:45:58 51°13.929 2°53.221 -999 34 12.4 101500 62
2006-04-21 07:46:02 51°13.933 2°53.228 -999 34 12.4 101500 62
2006-04-21 07:46:07 51°13.937 2°53.237 -999 28 12.4 101500 62
2006-04-21 07:46:12 51°13.941 2°53.246 -999 30 12.4 101500 62
2006-04-21 07:46:17 51°13.945 2°53.255 -999 30 12.4 101500 62
2006-04-21 07:46:23 51°13.951 2°53.266 -999 32 12.4 101500 62
2006-04-21 07:46:27 51°13.954 2°53.274 -999 29 12.4 101500 62
2006-04-21 07:46:32 51°13.959 2°53.283 -999 31 12.4 101500 62
2006-04-21 07:46:37 51°13.963 2°53.292 -999 30 12.4 101500 62
2006-04-21 07:46:43 51°13.968 2°53.302 -999 34 12.4 101500 62
2006-04-21 07:46:47 51°13.971 2°53.31 -999 34 12.4 101500 62
2006-04-21 07:46:53 51°13.977 2°53.321 -999 36 12.4 101500 62
2006-04-21 07:46:58 51°13.981 2°53.329 -999 32 12.4 101500 62
2006-04-21 07:47:01 51°13.983 2°53.334 -999 36 12.4 101500 62
2006-04-21 07:47:07 51°13.988 2°53.345 -999 32 12.4 101500 62
2006-04-21 07:47:13 51°13.993 2°53.356 -999 35 12.4 101500 61
2006-04-21 07:47:18 51°13.998 2°53.365 -999 38 12.4 101500 61
2006-04-21 07:47:22 51°14.001 2°53.372 -999 37 12.4 101500 61
2006-04-21 07:47:27 51°14.005 2°53.381 -999 35 12.4 101500 61
2006-04-21 07:47:33 51°14.011 2°53.391 -999 34 12.4 101500 61
2006-04-21 07:47:37 51°14.014 2°53.398 -999 37 12.4 101500 61
2006-04-21 07:47:42 51°14.018 2°53.406 -999 38 12.4 101500 61
2006-04-21 07:47:47 51°14.022 2°53.415 -999 35 12.4 101500 61
2006-04-21 07:47:53 51°14.027 2°53.426 -999 38 12.5 101500 62
2006-04-21 07:47:58 51°14.031 2°53.434 -999 34 12.5 101500 62
2006-04-21 07:48:03 51°14.036 2°53.443 -999 37 12.5 101500 61
2006-04-21 07:48:07 51°14.039 2°53.45 -999 38 12.5 101500 61
2006-04-21 07:48:12 51°14.043 2°53.459 -999 39 12.4 101500 61
2006-04-21 07:48:18 51°14.048 2°53.47 -999 37 12.4 101500 61
2006-04-21 07:48:21 51°14.051 2°53.475 -999 39 12.5 101510 61
2006-04-21 07:48:27 51°14.055 2°53.486 -999 35 12.5 101510 61
2006-04-21 07:48:33 51°14.061 2°53.496 -999 35 12.5 101510 61
2006-04-21 07:48:38 51°14.065 2°53.505 -999 28 12.5 101510 61
2006-04-21 07:48:43 51°14.069 2°53.514 -999 26 12.4 101500 61
2006-04-21 07:48:47 51°14.072 2°53.521 -999 24 12.4 101500 61
2006-04-21 07:48:53 51°14.076 2°53.532 -999 31 12.5 101500 61
2006-04-21 07:48:57 51°14.08 2°53.539 -999 31 12.5 101500 61
2006-04-21 07:49:03 51°14.085 2°53.55 -999 29 12.5 101510 61
2006-04-21 07:49:08 51°14.089 2°53.559 -999 24 12.5 101510 61
2006-04-21 07:49:12 51°14.092 2°53.566 -999 26 12.5 101500 61
2006-04-21 07:49:17 51°14.096 2°53.574 -999 27 12.5 101500 61
2006-04-21 07:49:22 51°14.1 2°53.583 -999 28 12.5 101510 61
2006-04-21 07:49:28 51°14.105 2°53.594 -999 28 12.5 101510 61
2006-04-21 07:49:33 51°14.109 2°53.602 -999 22 12.5 101510 61
2006-04-21 07:49:37 51°14.113 2°53.609 -999 25 12.5 101510 61
2006-04-21 07:49:42 51°14.117 2°53.618 -999 25 12.5 101510 61
2006-04-21 07:49:47 51°14.122 2°53.627 -999 23 12.5 101510 61
2006-04-21 07:49:53 51°14.127 2°53.637 -999 26 12.5 101510 61
2006-04-21 07:49:58 51°14.131 2°53.645 -999 18 12.5 101510 61
2006-04-21 07:50:02 51°14.135 2°53.652 -999 20 12.5 101500 61
2006-04-21 07:50:07 51°14.139 2°53.661 -999 19 12.5 101500 61
2006-04-21 07:50:12 51°14.143 2°53.669 -999 21 12.5 101510 61
2006-04-21 07:50:17 51°14.148 2°53.678 -999 18 12.5 101510 61
2006-04-21 07:50:22 51°14.152 2°53.686 -999 20 12.6 101510 61
2006-04-21 07:50:27 51°14.156 2°53.695 -999 21 12.6 101510 61
2006-04-21 07:50:32 51°14.16 2°53.703 -999 27 12.6 101510 62
2006-04-21 07:50:37 51°14.164 2°53.712 -999 24 12.6 101510 62
2006-04-21 07:50:43 51°14.169 2°53.723 -999 26 12.6 101500 63
2006-04-21 07:50:48 51°14.172 2°53.731 -999 21 12.6 101500 63
2006-04-21 07:50:52 51°14.175 2°53.738 -999 26 12.6 101510 63
2006-04-21 07:50:57 51°14.179 2°53.746 -999 25 12.6 101510 63
2006-04-21 07:51:03 51°14.183 2°53.755 -999 26 12.6 101510 64
2006-04-21 07:51:07 51°14.186 2°53.762 -999 27 12.6 101510 64
2006-04-21 07:51:13 51°14.19 2°53.771 -999 27 12.6 101500 63
2006-04-21 07:51:17 51°14.193 2°53.777 -999 30 12.6 101500 63
2006-04-21 07:51:22 51°14.196 2°53.784 -999 30 12.6 101510 63
2006-04-21 07:51:27 51°14.2 2°53.792 -999 28 12.6 101510 63
2006-04-21 07:51:32 51°14.203 2°53.798 -999 30 12.5 101510 63
2006-04-21 07:51:37 51°14.207 2°53.805 -999 31 12.5 101510 63
2006-04-21 07:51:42 51°14.21 2°53.812 -999 32 12.5 101500 63
2006-04-21 07:51:47 51°14.213 2°53.819 -999 37 12.5 101500 63
2006-04-21 07:51:52 51°14.217 2°53.825 -999 34 12.5 101510 63
2006-04-21 07:51:57 51°14.22 2°53.832 -999 35 12.5 101510 63
2006-04-21 07:52:02 51°14.223 2°53.838 -999 36 12.5 101510 62
2006-04-21 07:52:07 51°14.226 2°53.844 -999 36 12.5 101510 62
2006-04-21 07:52:12 51°14.23 2°53.85 -999 34 12.5 101500 62
2006-04-21 07:52:17 51°14.233 2°53.856 -999 33 12.5 101500 62
2006-04-21 07:52:22 51°14.236 2°53.862 -999 35 12.5 101510 61
2006-04-21 07:52:27 51°14.239 2°53.868 -999 30 12.5 101510 61
2006-04-21 07:52:32 51°14.242 2°53.874 -999 34 12.5 101510 61
2006-04-21 07:52:38 51°14.246 2°53.881 -999 36 12.5 101510 61
2006-04-21 07:52:42 51°14.248 2°53.885 -999 35 12.5 101510 61
2006-04-21 07:52:47 51°14.251 2°53.891 -999 40 12.5 101510 61
2006-04-21 07:52:52 51°14.255 2°53.896 -999 40 12.5 101510 62
2006-04-21 07:52:57 51°14.258 2°53.902 -999 40 12.5 101510 62
2006-04-21 07:53:02 51°14.261 2°53.907 -999 41 12.5 101500 63
2006-04-21 07:53:07 51°14.264 2°53.913 -999 41 12.5 101500 63
2006-04-21 07:53:13 51°14.267 2°53.919 -999 42 12.5 101510 62
2006-04-21 07:53:17 51°14.27 2°53.924 -999 42 12.5 101510 62
2006-04-21 07:53:23 51°14.274 2°53.93 -999 43 12.5 101500 62
2006-04-21 07:53:28 51°14.276 2°53.935 -999 47 12.5 101500 62
2006-04-21 07:53:32 51°14.279 2°53.939 -999 46 12.5 101500 63
2006-04-21 07:53:37 51°14.282 2°53.944 -999 52 12.5 101500 63
2006-04-21 07:53:43 51°14.286 2°53.949 -999 49 12.5 101510 62
2006-04-21 07:53:48 51°14.289 2°53.954 -999 51 12.5 101510 62
2006-04-21 07:53:53 51°14.292 2°53.958 -999 60 12.5 101500 62
2006-04-21 07:53:58 51°14.295 2°53.962 -999 56 12.5 101500 62
2006-04-21 07:54:03 51°14.298 2°53.966 -999 60 12.5 101500 62
2006-04-21 07:54:07 51°14.3 2°53.968 -999 59 12.5 101500 62
2006-04-21 07:54:13 51°14.304 2°53.973 -999 60 12.5 101500 62
2006-04-21 07:54:18 51°14.307 2°53.976 -999 69 12.5 101500 62
2006-04-21 07:54:22 51°14.31 2°53.978 -999 68 12.4 101500 62
2006-04-21 07:54:27 51°14.313 2°53.981 -999 75 12.4 101500 62
2006-04-21 07:54:33 51°14.317 2°53.985 -999 69 12.4 101510 63
2006-04-21 07:54:38 51°14.321 2°53.987 -999 71 12.4 101510 63
2006-04-21 07:54:43 51°14.324 2°53.99 -999 73 12.4 101500 63
2006-04-21 07:54:47 51°14.327 2°53.992 -999 72 12.4 101500 63
2006-04-21 07:54:51 51°14.329 2°53.994 -999 66 12.4 101500 63
2006-04-21 07:54:58 51°14.334 2°53.998 -999 72 12.4 101500 63
2006-04-21 07:55:02 51°14.337 2°53.999 -999 74 12.4 101510 63
2006-04-21 07:55:07 51°14.34 2°54.002 -999 72 12.4 101510 63
2006-04-21 07:55:12 51°14.343 2°54.004 -999 73 12.4 101510 63
2006-04-21 07:55:17 51°14.346 2°54.006 -999 79 12.4 101510 63
2006-04-21 07:55:23 51°14.35 2°54.008 -999 78 12.4 101510 63
2006-04-21 07:55:27 51°14.352 2°54.01 -999 79 12.4 101510 63
2006-04-21 07:55:32 51°14.356 2°54.012 -999 78 12.3 101510 63
2006-04-21 07:55:37 51°14.359 2°54.014 -999 80 12.3 101510 63
2006-04-21 07:55:43 51°14.362 2°54.015 -999 80 12.4 101510 63
2006-04-21 07:55:48 51°14.365 2°54.017 -999 82 12.4 101510 63
2006-04-21 07:55:51 51°14.367 2°54.018 -999 82 12.4 101510 62
2006-04-21 07:55:58 51°14.371 2°54.02 -999 87 12.4 101510 62
2006-04-21 07:56:03 51°14.374 2°54.021 -999 88 12.4 101500 62
2006-04-21 07:56:07 51°14.376 2°54.023 -999 87 12.4 101500 62
2006-04-21 07:56:13 51°14.379 2°54.024 -999 87 12.4 101500 62
2006-04-21 07:56:17 51°14.382 2°54.026 -999 92 12.4 101500 62
2006-04-21 07:56:22 51°14.384 2°54.027 -999 89 12.4 101510 62
2006-04-21 07:56:28 51°14.387 2°54.028 -999 93 12.4 101510 62
2006-04-21 07:56:33 51°14.39 2°54.029 -999 94 12.4 101510 62
2006-04-21 07:56:37 51°14.392 2°54.03 -999 97 12.4 101510 62
2006-04-21 07:56:41 51°14.394 2°54.031 -999 97 12.4 101510 62
2006-04-21 07:56:47 51°14.397 2°54.032 -999 97 12.4 101510 62
2006-04-21 07:56:53 51°14.4 2°54.033 -999 97 12.4 101510 63
2006-04-21 07:56:57 51°14.403 2°54.034 -999 102 12.4 101510 63
2006-04-21 07:57:02 51°14.406 2°54.035 -999 101 12.4 101500 63
2006-04-21 07:57:07 51°14.41 2°54.035 -999 102 12.4 101500 63
2006-04-21 07:57:12 51°14.414 2°54.034 -999 108 12.4 101500 62
2006-04-21 07:57:17 51°14.419 2°54.033 -999 111 12.4 101500 62
2006-04-21 07:57:23 51°14.424 2°54.029 -999 110 12.4 101510 62
2006-04-21 07:57:27 51°14.428 2°54.026 -999 116 12.4 101510 62
2006-04-21 07:57:32 51°14.432 2°54.021 -999 120 12.4 101510 62
2006-04-21 07:57:37 51°14.436 2°54.016 -999 124 12.4 101510 62
2006-04-21 07:57:43 51°14.441 2°54.007 -999 127 12.4 101510 62
2006-04-21 07:57:48 51°14.444 2°54 -999 129 12.4 101510 62
2006-04-21 07:57:53 51°14.446 2°53.991 -999 133 12.4 101510 62
2006-04-21 07:57:57 51°14.448 2°53.984 -999 136 12.4 101510 62
2006-04-21 07:58:01 51°14.448 2°53.977 -999 144 12.4 101510 62
2006-04-21 07:58:08 51°14.449 2°53.965 -999 153 12.4 101510 62
2006-04-21 07:58:12 51°14.448 2°53.958 -999 188 12.4 101510 62
2006-04-21 07:58:17 51°14.448 2°53.95 -999 282 12.4 101510 62
2006-04-21 07:58:21 51°14.447 2°53.944 -999 282 12.4 101510 62
2006-04-21 07:58:27 51°14.446 2°53.935 -999 285 12.4 101510 62
2006-04-21 07:58:32 51°14.444 2°53.928 -999 286 12.4 101510 62
2006-04-21 07:58:37 51°14.442 2°53.921 -999 286 12.4 101510 62
2006-04-21 07:58:43 51°14.44 2°53.913 -999 285 12.5 101510 62
2006-04-21 07:58:47 51°14.438 2°53.907 -999 292 12.5 101510 62
2006-04-21 07:58:53 51°14.435 2°53.899 -999 289 12.5 101500 62
2006-04-21 07:58:58 51°14.432 2°53.893 -999 288 12.5 101500 62
2006-04-21 07:59:02 51°14.43 2°53.888 -999 287 12.5 101510 62
2006-04-21 07:59:07 51°14.427 2°53.882 -999 287 12.5 101510 62
2006-04-21 07:59:13 51°14.424 2°53.874 -999 287 12.5 101510 61
2006-04-21 07:59:18 51°14.421 2°53.867 -999 287 12.5 101510 61
2006-04-21 07:59:23 51°14.417 2°53.861 -999 288 12.5 101510 61
2006-04-21 07:59:28 51°14.414 2°53.855 -999 290 12.5 101510 61
2006-04-21 07:59:32 51°14.412 2°53.85 -999 290 12.5 101510 61
2006-04-21 07:59:37 51°14.408 2°53.844 -999 292 12.5 101510 61
2006-04-21 07:59:42 51°14.404 2°53.838 -999 292 12.5 101510 61
2006-04-21 07:59:47 51°14.401 2°53.831 -999 296 12.5 101510 61
2006-04-21 07:59:52 51°14.397 2°53.825 -999 296 12.6 101510 61
2006-04-21 07:59:57 51°14.393 2°53.819 -999 298 12.6 101510 61
2006-04-21 08:00:03 51°14.389 2°53.812 -999 308 12.6 101510 61
2006-04-21 08:00:08 51°14.385 2°53.806 -999 308 12.6 101510 61
2006-04-21 08:00:13 51°14.381 2°53.8 -999 314 12.6 101510 61
2006-04-21 08:00:17 51°14.378 2°53.795 -999 312 12.6 101510 61
2006-04-21 08:00:22 51°14.374 2°53.789 -999 314 12.6 101510 62
2006-04-21 08:00:27 51°14.37 2°53.783 -999 312 12.6 101510 62
2006-04-21 08:00:32 51°14.366 2°53.777 -999 312 12.6 101510 62
2006-04-21 08:00:37 51°14.362 2°53.771 -999 310 12.6 101510 62
2006-04-21 08:00:42 51°14.358 2°53.764 -999 319 12.6 101510 62
2006-04-21 08:00:47 51°14.354 2°53.759 -999 44 12.6 101510 62
2006-04-21 08:00:52 51°14.35 2°53.752 -999 42 12.6 101510 62
2006-04-21 08:00:57 51°14.346 2°53.746 -999 227 12.6 101510 62
2006-04-21 08:01:02 51°14.342 2°53.74 -999 227 12.6 101510 62
2006-04-21 08:01:07 51°14.337 2°53.733 -999 227 12.6 101510 62
2006-04-21 08:01:12 51°14.334 2°53.727 -999 313 12.6 101510 62
2006-04-21 08:01:17 51°14.33 2°53.721 -999 315 12.6 101510 62
2006-04-21 08:01:23 51°14.325 2°53.712 -999 313 12.6 101510 62
2006-04-21 08:01:27 51°14.322 2°53.707 -999 314 12.6 101510 62
2006-04-21 08:01:32 51°14.319 2°53.7 -999 314 12.6 101510 62
2006-04-21 08:01:37 51°14.316 2°53.692 -999 315 12.6 101510 62
2006-04-21 08:01:41 51°14.313 2°53.686 -999 312 12.6 101510 62
2006-04-21 08:01:47 51°14.309 2°53.677 -999 312 12.6 101510 62
2006-04-21 08:01:52 51°14.306 2°53.67 -999 308 12.7 101510 62
2006-04-21 08:01:58 51°14.303 2°53.66 -999 307 12.7 101510 62
2006-04-21 08:02:03 51°14.3 2°53.652 -999 307 12.7 101510 62
2006-04-21 08:02:07 51°14.298 2°53.646 -999 307 12.7 101510 62
2006-04-21 08:02:12 51°14.295 2°53.637 -999 306 12.7 101510 62
2006-04-21 08:02:17 51°14.293 2°53.629 -999 309 12.7 101510 62
2006-04-21 08:02:23 51°14.289 2°53.62 -999 308 12.7 101510 63
2006-04-21 08:02:28 51°14.287 2°53.611 -999 310 12.7 101510 63
2006-04-21 08:02:32 51°14.285 2°53.605 -999 307 12.7 101510 62
2006-04-21 08:02:37 51°14.283 2°53.596 -999 308 12.7 101510 62
2006-04-21 08:02:43 51°14.28 2°53.586 -999 307 12.7 101510 62
2006-04-21 08:02:47 51°14.278 2°53.579 -999 309 12.7 101510 62
2006-04-21 08:02:53 51°14.276 2°53.569 -999 307 12.7 101510 62
2006-04-21 08:02:57 51°14.274 2°53.562 -999 310 12.7 101510 62
2006-04-21 08:03:02 51°14.272 2°53.553 -999 309 12.7 101510 62
2006-04-21 08:03:08 51°14.27 2°53.543 -999 311 12.7 101510 62
2006-04-21 08:03:13 51°14.268 2°53.534 -999 311 12.7 101510 62
2006-04-21 08:03:17 51°14.267 2°53.527 -999 313 12.7 101510 62
2006-04-21 08:03:22 51°14.265 2°53.518 -999 314 12.7 101510 62
2006-04-21 08:03:27 51°14.263 2°53.509 -999 228 12.7 101510 62
2006-04-21 08:03:33 51°14.261 2°53.499 -999 42 12.7 101510 62
2006-04-21 08:03:37 51°14.26 2°53.492 -999 319 12.7 101510 62
2006-04-21 08:03:43 51°14.257 2°53.481 -999 43 12.7 101510 62
2006-04-21 08:03:47 51°14.256 2°53.475 -999 323 12.7 101510 62
2006-04-21 08:03:52 51°14.254 2°53.466 -999 320 12.7 101510 62
2006-04-21 08:03:57 51°14.251 2°53.458 -999 332 12.7 101510 62
2006-04-21 08:04:03 51°14.248 2°53.448 -999 345 12.7 101510 62
2006-04-21 08:04:07 51°14.247 2°53.442 -999 359 12.7 101510 62
2006-04-21 08:04:12 51°14.244 2°53.434 -999 6 12.7 101510 62
2006-04-21 08:04:17 51°14.241 2°53.426 -999 1 12.7 101510 62
2006-04-21 08:04:23 51°14.237 2°53.417 -999 357 12.7 101510 63
2006-04-21 08:04:27 51°14.235 2°53.411 -999 13 12.7 101510 63
2006-04-21 08:04:32 51°14.232 2°53.404 -999 5 12.7 101510 64
2006-04-21 08:04:37 51°14.229 2°53.396 -999 12 12.7 101510 64
2006-04-21 08:04:43 51°14.225 2°53.388 -999 13 12.7 101520 65
2006-04-21 08:04:47 51°14.222 2°53.382 -999 11 12.7 101520 65
2006-04-21 08:04:52 51°14.219 2°53.374 -999 357 12.7 101510 64
2006-04-21 08:04:57 51°14.216 2°53.367 -999 355 12.7 101510 64
2006-04-21 08:05:02 51°14.212 2°53.36 -999 353 12.7 101510 63
2006-04-21 08:05:08 51°14.208 2°53.351 -999 355 12.7 101510 63
2006-04-21 08:05:13 51°14.205 2°53.344 -999 350 12.6 101510 63
2006-04-21 08:05:17 51°14.203 2°53.338 -999 1 12.6 101510 63
2006-04-21 08:05:22 51°14.199 2°53.331 -999 355 12.6 101510 63
2006-04-21 08:05:27 51°14.197 2°53.323 -999 2 12.6 101510 63
2006-04-21 08:05:32 51°14.194 2°53.315 -999 360 12.6 101510 62
2006-04-21 08:05:38 51°14.191 2°53.305 -999 354 12.6 101510 62
2006-04-21 08:05:42 51°14.188 2°53.299 -999 356 12.6 101520 63
2006-04-21 08:05:47 51°14.186 2°53.291 -999 357 12.6 101520 63
2006-04-21 08:05:53 51°14.182 2°53.282 -999 7 12.5 101520 63
2006-04-21 08:05:57 51°14.18 2°53.276 -999 7 12.5 101520 63
2006-04-21 08:06:03 51°14.176 2°53.269 -999 9 12.6 101510 63
2006-04-21 08:06:07 51°14.174 2°53.264 -999 359 12.6 101510 63
2006-04-21 08:06:12 51°14.17 2°53.259 -999 15 12.6 101520 63
2006-04-21 08:06:17 51°14.166 2°53.255 -999 26 12.6 101520 63
2006-04-21 08:06:22 51°14.163 2°53.252 -999 27 12.6 101520 63
2006-04-21 08:06:27 51°14.159 2°53.249 -999 32 12.6 101520 63
2006-04-21 08:06:32 51°14.155 2°53.247 -999 30 12.6 101520 63
2006-04-21 08:06:38 51°14.15 2°53.244 -999 24 12.6 101520 63
2006-04-21 08:06:43 51°14.146 2°53.244 -999 9 12.5 101510 63
2006-04-21 08:06:48 51°14.142 2°53.244 -999 38 12.5 101510 63
2006-04-21 08:06:52 51°14.139 2°53.244 -999 23 12.5 101520 63
2006-04-21 08:06:57 51°14.135 2°53.245 -999 17 12.5 101520 63
2006-04-21 08:07:03 51°14.13 2°53.246 -999 30 12.5 101520 63
2006-04-21 08:07:08 51°14.126 2°53.249 -999 32 12.5 101520 63
2006-04-21 08:07:13 51°14.123 2°53.251 -999 56 12.5 101520 63
2006-04-21 08:07:17 51°14.12 2°53.254 -999 14 12.5 101520 63
2006-04-21 08:07:22 51°14.117 2°53.257 -999 18 12.5 101520 63
2006-04-21 08:07:28 51°14.113 2°53.262 -999 17 12.5 101520 63
2006-04-21 08:07:31 51°14.111 2°53.265 -999 18 12.5 101520 64
2006-04-21 08:07:37 51°14.108 2°53.27 -999 18 12.5 101520 64
2006-04-21 08:07:43 51°14.106 2°53.277 -999 20 12.5 101520 64
2006-04-21 08:07:48 51°14.103 2°53.282 -999 21 12.5 101520 64
2006-04-21 08:07:52 51°14.102 2°53.287 -999 21 12.5 101520 64
2006-04-21 08:07:57 51°14.101 2°53.293 -999 26 12.5 101520 64
2006-04-21 08:08:02 51°14.1 2°53.299 -999 31 12.5 101520 65
2006-04-21 08:08:07 51°14.099 2°53.306 -999 39 12.5 101520 65
2006-04-21 08:08:13 51°14.098 2°53.314 -999 40 12.5 101520 65
2006-04-21 08:08:17 51°14.098 2°53.319 -999 42 12.5 101520 65
2006-04-21 08:08:22 51°14.098 2°53.326 -999 44 12.5 101520 65
2006-04-21 08:08:27 51°14.099 2°53.333 -999 47 12.5 101520 65
2006-04-21 08:08:32 51°14.1 2°53.34 -999 47 12.5 101520 65
2006-04-21 08:08:37 51°14.101 2°53.346 -999 47 12.5 101520 65
2006-04-21 08:08:43 51°14.103 2°53.354 -999 50 12.5 101520 64
2006-04-21 08:08:47 51°14.104 2°53.36 -999 50 12.5 101520 64
2006-04-21 08:08:52 51°14.106 2°53.367 -999 48 12.5 101520 63
2006-04-21 08:08:57 51°14.109 2°53.373 -999 50 12.5 101520 63
2006-04-21 08:09:01 51°14.11 2°53.379 -999 48 12.5 101520 63
2006-04-21 08:09:07 51°14.113 2°53.387 -999 43 12.5 101520 63
2006-04-21 08:09:12 51°14.116 2°53.395 -999 43 12.5 101520 63
2006-04-21 08:09:17 51°14.119 2°53.402 -999 41 12.5 101520 63
2006-04-21 08:09:23 51°14.122 2°53.411 -999 40 12.5 101520 62
2006-04-21 08:09:27 51°14.124 2°53.417 -999 39 12.5 101520 62
2006-04-21 08:09:33 51°14.128 2°53.426 -999 36 12.5 101520 62
2006-04-21 08:09:37 51°14.13 2°53.433 -999 26 12.5 101520 62
2006-04-21 08:09:42 51°14.134 2°53.441 -999 1 12.6 101520 62
2006-04-21 08:09:48 51°14.138 2°53.451 -999 9 12.6 101520 62
2006-04-21 08:09:53 51°14.142 2°53.46 -999 7 12.6 101520 62
2006-04-21 08:09:57 51°14.145 2°53.467 -999 1 12.6 101520 62
2006-04-21 08:10:02 51°14.148 2°53.476 -999 329 12.7 101520 62
2006-04-21 08:10:07 51°14.153 2°53.486 -999 338 12.7 101520 62
2006-04-21 08:10:12 51°14.157 2°53.496 -999 324 12.7 101520 63
2006-04-21 08:10:18 51°14.162 2°53.509 -999 337 12.7 101520 63
2006-04-21 08:10:22 51°14.166 2°53.518 -999 341 12.7 101530 63
2006-04-21 08:10:27 51°14.17 2°53.529 -999 347 12.7 101530 63
2006-04-21 08:10:33 51°14.176 2°53.543 -999 335 12.7 101530 63
2006-04-21 08:10:37 51°14.18 2°53.552 -999 356 12.7 101530 63
2006-04-21 08:10:43 51°14.185 2°53.567 -999 12 12.7 101520 63
2006-04-21 08:10:47 51°14.188 2°53.576 -999 337 12.7 101520 63
2006-04-21 08:10:52 51°14.193 2°53.588 -999 329 12.7 101530 63
2006-04-21 08:10:57 51°14.197 2°53.599 -999 43 12.7 101530 63
2006-04-21 08:11:03 51°14.202 2°53.614 -999 315 12.8 101530 63
2006-04-21 08:11:07 51°14.206 2°53.623 -999 309 12.8 101530 63
2006-04-21 08:11:12 51°14.21 2°53.635 -999 317 12.7 101530 63
2006-04-21 08:11:18 51°14.215 2°53.649 -999 328 12.7 101530 63
2006-04-21 08:11:21 51°14.217 2°53.657 -999 315 12.8 101530 63
2006-04-21 08:11:28 51°14.223 2°53.673 -999 322 12.8 101530 63
2006-04-21 08:11:32 51°14.226 2°53.683 -999 311 12.8 101530 63
2006-04-21 08:11:37 51°14.231 2°53.695 -999 320 12.8 101530 63
2006-04-21 08:11:41 51°14.234 2°53.705 -999 318 12.8 101530 63
2006-04-21 08:11:48 51°14.239 2°53.72 -999 43 12.8 101530 63
2006-04-21 08:11:52 51°14.242 2°53.729 -999 319 12.8 101530 63
2006-04-21 08:11:57 51°14.246 2°53.74 -999 315 12.8 101530 63
2006-04-21 08:12:01 51°14.249 2°53.748 -999 315 12.8 101530 64
2006-04-21 08:12:07 51°14.253 2°53.761 -999 227 12.8 101530 64
2006-04-21 08:12:13 51°14.257 2°53.774 -999 316 12.8 101530 64
2006-04-21 08:12:17 51°14.26 2°53.782 -999 42 12.8 101530 64
2006-04-21 08:12:23 51°14.263 2°53.794 -999 42 12.8 101530 63
2006-04-21 08:12:28 51°14.267 2°53.804 -999 227 12.8 101530 63
2006-04-21 08:12:33 51°14.27 2°53.813 -999 314 12.8 101530 63
2006-04-21 08:12:37 51°14.272 2°53.82 -999 308 12.8 101530 63
2006-04-21 08:12:42 51°14.275 2°53.83 -999 311 12.7 101530 63
2006-04-21 08:12:47 51°14.278 2°53.839 -999 303 12.7 101530 63
2006-04-21 08:12:53 51°14.282 2°53.85 -999 303 12.8 101530 63
2006-04-21 08:12:57 51°14.284 2°53.857 -999 301 12.8 101530 63
2006-04-21 08:13:02 51°14.287 2°53.866 -999 300 12.8 101530 63
2006-04-21 08:13:07 51°14.29 2°53.875 -999 301 12.8 101530 63
2006-04-21 08:13:12 51°14.293 2°53.884 -999 305 12.8 101530 63
2006-04-21 08:13:17 51°14.295 2°53.893 -999 43 12.8 101530 63
2006-04-21 08:13:23 51°14.298 2°53.904 -999 316 12.7 101530 63
2006-04-21 08:13:27 51°14.301 2°53.911 -999 315 12.7 101530 63
2006-04-21 08:13:32 51°14.304 2°53.921 -999 316 12.8 101530 64
2006-04-21 08:13:37 51°14.307 2°53.93 -999 43 12.8 101530 64
2006-04-21 08:13:43 51°14.31 2°53.942 -999 319 12.8 101530 65
2006-04-21 08:13:48 51°14.313 2°53.952 -999 322 12.8 101530 65
2006-04-21 08:13:52 51°14.316 2°53.96 -999 318 12.8 101530 65
2006-04-21 08:13:57 51°14.319 2°53.97 -999 228 12.8 101530 65
2006-04-21 08:14:03 51°14.323 2°53.983 -999 323 12.8 101530 65
2006-04-21 08:14:08 51°14.327 2°53.993 -999 323 12.8 101530 65
2006-04-21 08:14:13 51°14.33 2°54.004 -999 327 12.8 101540 66
2006-04-21 08:14:18 51°14.334 2°54.015 -999 325 12.8 101540 66
2006-04-21 08:14:23 51°14.337 2°54.026 -999 322 12.7 101540 66
2006-04-21 08:14:28 51°14.34 2°54.037 -999 332 12.7 101540 66
2006-04-21 08:14:33 51°14.343 2°54.048 -999 340 12.7 101530 66
2006-04-21 08:14:37 51°14.346 2°54.057 -999 331 12.7 101530 66
2006-04-21 08:14:42 51°14.35 2°54.069 -999 328 12.7 101540 66
2006-04-21 08:14:47 51°14.353 2°54.081 -999 327 12.7 101540 66
2006-04-21 08:14:53 51°14.357 2°54.095 -999 332 12.7 101530 66
2006-04-21 08:14:58 51°14.361 2°54.106 -999 319 12.7 101530 66
2006-04-21 08:15:03 51°14.364 2°54.118 -999 318 12.7 101540 66
2006-04-21 08:15:07 51°14.367 2°54.128 -999 326 12.7 101540 66
2006-04-21 08:15:12 51°14.371 2°54.142 -999 328 12.6 101540 66
2006-04-21 08:15:17 51°14.375 2°54.155 -999 335 12.6 101540 66
2006-04-21 08:15:21 51°14.377 2°54.166 -999 343 12.6 101540 66
2006-04-21 08:15:27 51°14.382 2°54.183 -999 343 12.6 101540 66
2006-04-21 08:15:31 51°14.386 2°54.194 -999 334 12.6 101540 66
2006-04-21 08:15:37 51°14.391 2°54.21 -999 332 12.6 101540 66
2006-04-21 08:15:41 51°14.395 2°54.221 -999 334 12.6 101540 66
2006-04-21 08:15:48 51°14.401 2°54.24 -999 335 12.6 101540 66
2006-04-21 08:15:52 51°14.405 2°54.25 -999 335 12.6 101540 67
2006-04-21 08:15:57 51°14.409 2°54.263 -999 343 12.6 101540 67
2006-04-21 08:16:03 51°14.415 2°54.279 -999 330 12.6 101540 67
2006-04-21 08:16:08 51°14.419 2°54.292 -999 341 12.6 101540 67
2006-04-21 08:16:13 51°14.423 2°54.305 -999 334 12.5 101540 67
2006-04-21 08:16:17 51°14.427 2°54.316 -999 331 12.5 101540 67
2006-04-21 08:16:21 51°14.43 2°54.326 -999 326 12.5 101540 67
2006-04-21 08:16:28 51°14.436 2°54.344 -999 335 12.5 101540 67
2006-04-21 08:16:32 51°14.439 2°54.354 -999 324 12.5 101540 67
2006-04-21 08:16:38 51°14.444 2°54.369 -999 343 12.5 101540 67
2006-04-21 08:16:41 51°14.446 2°54.377 -999 338 12.5 101540 67
2006-04-21 08:16:47 51°14.449 2°54.391 -999 346 12.5 101540 67
2006-04-21 08:16:52 51°14.451 2°54.403 -999 341 12.5 101540 67
2006-04-21 08:16:57 51°14.454 2°54.414 -999 344 12.5 101540 67
2006-04-21 08:17:03 51°14.456 2°54.428 -999 329 12.5 101540 67
2006-04-21 08:17:07 51°14.457 2°54.436 -999 319 12.5 101540 67
2006-04-21 08:17:13 51°14.459 2°54.449 -999 314 12.5 101540 66
2006-04-21 08:17:17 51°14.46 2°54.458 -999 308 12.5 101540 66
2006-04-21 08:17:22 51°14.462 2°54.468 -999 294 12.5 101540 66
2006-04-21 08:17:27 51°14.463 2°54.478 -999 292 12.5 101540 66
2006-04-21 08:17:33 51°14.464 2°54.49 -999 287 12.5 101540 66
2006-04-21 08:17:37 51°14.464 2°54.497 -999 271 12.5 101540 66
2006-04-21 08:17:41 51°14.465 2°54.505 -999 207 12.5 101540 66
2006-04-21 08:17:48 51°14.465 2°54.518 -999 185 12.5 101540 66
2006-04-21 08:17:53 51°14.465 2°54.527 -999 183 12.5 101540 66
2006-04-21 08:17:58 51°14.465 2°54.536 -999 183 12.5 101540 66
2006-04-21 08:18:03 51°14.465 2°54.544 -999 183 12.5 101540 66
2006-04-21 08:18:08 51°14.465 2°54.553 -999 181 12.5 101540 66
2006-04-21 08:18:13 51°14.465 2°54.561 -999 181 12.5 101540 66
2006-04-21 08:18:17 51°14.464 2°54.567 -999 174 12.5 101540 66
2006-04-21 08:18:23 51°14.464 2°54.577 -999 170 12.5 101540 66
2006-04-21 08:18:28 51°14.463 2°54.586 -999 160 12.5 101540 66
2006-04-21 08:18:33 51°14.463 2°54.595 -999 160 12.5 101540 66
2006-04-21 08:18:37 51°14.463 2°54.602 -999 157 12.5 101540 66
2006-04-21 08:18:43 51°14.462 2°54.614 -999 157 12.5 101540 66
2006-04-21 08:18:48 51°14.461 2°54.623 -999 140 12.5 101540 66
2006-04-21 08:18:53 51°14.461 2°54.633 -999 140 12.5 101550 66
2006-04-21 08:18:57 51°14.46 2°54.641 -999 139 12.5 101550 66
2006-04-21 08:19:02 51°14.46 2°54.652 -999 139 12.5 101540 66
2006-04-21 08:19:08 51°14.458 2°54.664 -999 135 12.5 101540 66
2006-04-21 08:19:13 51°14.457 2°54.675 -999 122 12.5 101540 67
2006-04-21 08:19:17 51°14.456 2°54.683 -999 121 12.5 101540 67
2006-04-21 08:19:22 51°14.454 2°54.693 -999 110 12.5 101540 67
2006-04-21 08:19:28 51°14.452 2°54.706 -999 105 12.5 101540 67
2006-04-21 08:19:33 51°14.451 2°54.716 -999 106 12.5 101540 67
2006-04-21 08:19:37 51°14.449 2°54.725 -999 107 12.5 101540 67
2006-04-21 08:19:43 51°14.447 2°54.737 -999 107 12.5 101540 67
2006-04-21 08:19:47 51°14.445 2°54.745 -999 126 12.5 101540 67
2006-04-21 08:19:53 51°14.443 2°54.757 -999 112 12.5 101540 67
2006-04-21 08:19:57 51°14.441 2°54.765 -999 119 12.5 101540 67
2006-04-21 08:20:01 51°14.439 2°54.773 -999 119 12.5 101540 67
2006-04-21 08:20:07 51°14.437 2°54.784 -999 119 12.5 101540 67
2006-04-21 08:20:12 51°14.434 2°54.794 -999 108 12.5 101540 67
2006-04-21 08:20:18 51°14.431 2°54.807 -999 99 12.5 101540 67
2006-04-21 08:20:23 51°14.429 2°54.818 -999 99 12.4 101540 67
2006-04-21 08:20:28 51°14.426 2°54.828 -999 99 12.4 101540 67
2006-04-21 08:20:33 51°14.423 2°54.84 -999 80 12.4 101540 67
2006-04-21 08:20:37 51°14.421 2°54.849 -999 73 12.4 101540 67
2006-04-21 08:20:43 51°14.417 2°54.862 -999 75 12.4 101550 68
2006-04-21 08:20:47 51°14.415 2°54.871 -999 81 12.4 101550 68
2006-04-21 08:20:53 51°14.411 2°54.885 -999 79 12.4 101540 67
2006-04-21 08:20:57 51°14.408 2°54.894 -999 78 12.4 101540 67
2006-04-21 08:21:03 51°14.404 2°54.908 -999 81 12.4 101550 67
2006-04-21 08:21:07 51°14.402 2°54.917 -999 81 12.4 101550 67
2006-04-21 08:21:12 51°14.399 2°54.928 -999 81 12.4 101540 67
2006-04-21 08:21:18 51°14.394 2°54.942 -999 81 12.4 101540 67
2006-04-21 08:21:22 51°14.392 2°54.951 -999 81 12.4 101550 67
2006-04-21 08:21:28 51°14.388 2°54.965 -999 81 12.4 101550 67
2006-04-21 08:21:33 51°14.384 2°54.976 -999 87 12.3 101550 67
2006-04-21 08:21:38 51°14.381 2°54.987 -999 92 12.3 101550 67
2006-04-21 08:21:43 51°14.378 2°54.998 -999 93 12.4 101550 67
2006-04-21 08:21:47 51°14.375 2°55.006 -999 108 12.4 101550 67
2006-04-21 08:21:52 51°14.371 2°55.017 -999 108 12.4 101550 68
2006-04-21 08:21:57 51°14.368 2°55.028 -999 108 12.4 101550 68
2006-04-21 08:22:01 51°14.365 2°55.036 -999 112 12.4 101550 68
2006-04-21 08:22:07 51°14.361 2°55.048 -999 123 12.4 101550 68
2006-04-21 08:22:13 51°14.357 2°55.06 -999 123 12.3 101550 68
2006-04-21 08:22:17 51°14.354 2°55.068 -999 120 12.3 101550 68
2006-04-21 08:22:23 51°14.35 2°55.079 -999 126 12.3 101540 68
2006-04-21 08:22:27 51°14.348 2°55.086 -999 127 12.3 101540 68
2006-04-21 08:22:32 51°14.345 2°55.095 -999 127 12.3 101550 69
2006-04-21 08:22:38 51°14.341 2°55.105 -999 127 12.3 101550 69
2006-04-21 08:22:43 51°14.338 2°55.113 -999 127 12.3 101550 69
2006-04-21 08:22:48 51°14.335 2°55.122 -999 129 12.3 101550 69
2006-04-21 08:22:53 51°14.332 2°55.129 -999 129 12.3 101550 69
2006-04-21 08:22:57 51°14.33 2°55.135 -999 129 12.3 101550 69
2006-04-21 08:23:03 51°14.327 2°55.144 -999 129 12.3 101550 69
2006-04-21 08:23:07 51°14.325 2°55.149 -999 129 12.3 101550 69
2006-04-21 08:23:13 51°14.322 2°55.158 -999 129 12.3 101550 69
2006-04-21 08:23:17 51°14.32 2°55.163 -999 129 12.3 101550 69
2006-04-21 08:23:23 51°14.317 2°55.17 -999 129 12.2 101550 69
2006-04-21 08:23:28 51°14.314 2°55.177 -999 129 12.2 101550 69
2006-04-21 08:23:33 51°14.312 2°55.182 -999 129 12.2 101550 69
2006-04-21 08:23:37 51°14.31 2°55.187 -999 129 12.2 101550 69
2006-04-21 08:23:42 51°14.307 2°55.193 -999 129 12.2 101550 69
2006-04-21 08:23:47 51°14.305 2°55.198 -999 129 12.2 101550 69
2006-04-21 08:23:53 51°14.302 2°55.205 -999 129 12.2 101550 69
2006-04-21 08:23:58 51°14.3 2°55.21 -999 129 12.2 101550 69
2006-04-21 08:24:03 51°14.298 2°55.215 -999 129 12.2 101540 69
2006-04-21 08:24:07 51°14.296 2°55.219 -999 129 12.2 101540 69
2006-04-21 08:24:13 51°14.294 2°55.225 -999 129 12.2 101550 69
2006-04-21 08:24:17 51°14.292 2°55.229 -999 129 12.2 101550 69
2006-04-21 08:24:23 51°14.289 2°55.234 -999 129 12.2 101550 69
2006-04-21 08:24:27 51°14.287 2°55.238 -999 130 12.2 101550 69
2006-04-21 08:24:33 51°14.285 2°55.244 -999 130 12.2 101550 69
2006-04-21 08:24:37 51°14.283 2°55.247 -999 130 12.2 101550 69
2006-04-21 08:24:43 51°14.28 2°55.253 -999 130 12.2 101550 69
2006-04-21 08:24:47 51°14.279 2°55.257 -999 121 12.2 101550 69
2006-04-21 08:24:53 51°14.276 2°55.262 -999 137 12.1 101550 68
2006-04-21 08:24:57 51°14.274 2°55.265 -999 129 12.1 101550 68
2006-04-21 08:25:03 51°14.271 2°55.271 -999 116 12.2 101550 68
2006-04-21 08:25:08 51°14.268 2°55.275 -999 112 12.2 101550 68
2006-04-21 08:25:13 51°14.265 2°55.28 -999 112 12.2 101550 68
2006-04-21 08:25:17 51°14.263 2°55.284 -999 106 12.2 101550 68